Terminal Aerodrome Forecast
Issued by NWS Caribou, ME

Home | Current Version | Previous Version | Text Only | Print | Product List | Glossary On
Versions: 1 2 3 4 5 6 7 8 9 10 11 12 13 14 15 16 17 18 19 20 21
000
FTUS41 KCAR 250200 AAA
TAFCAR
TAF AMD
KCAR 250207Z 2502/2524 35008KT 6SM -SHRA OVC028
     FM250600 34007KT P6SM OVC022
     FM251600 VRB03KT P6SM BKN035=

USA.gov is the U.S. government's official web portal to all federal, state and local government web resources and services.